sensor_id;sensor_type;location;lat;lon;timestamp;temperature;humidity
34574;DHT22;20809;49.594;8.734;2023-04-01T00:01:12;9.70;99.90
34574;DHT22;20809;49.594;8.734;2023-04-01T00:04:16;9.70;99.90
34574;DHT22;20809;49.594;8.734;2023-04-01T00:07:17;9.70;99.90
34574;DHT22;20809;49.594;8.734;2023-04-01T00:10:18;9.70;99.90
34574;DHT22;20809;49.594;8.734;2023-04-01T00:13:20;9.70;99.90
34574;DHT22;20809;49.594;8.734;2023-04-01T00:16:22;9.70;99.90
34574;DHT22;20809;49.594;8.734;2023-04-01T00:19:22;9.70;99.90
34574;DHT22;20809;49.594;8.734;2023-04-01T00:22:24;9.70;99.90
34574;DHT22;20809;49.594;8.734;2023-04-01T00:25:25;9.60;99.90
34574;DHT22;20809;49.594;8.734;2023-04-01T00:28:26;9.60;99.90
34574;DHT22;20809;49.594;8.734;2023-04-01T00:31:27;9.60;99.90
34574;DHT22;20809;49.594;8.734;2023-04-01T00:34:28;9.60;99.90
34574;DHT22;20809;49.594;8.734;2023-04-01T00:37:28;9.60;99.90
34574;DHT22;20809;49.594;8.734;2023-04-01T00:40:37;9.60;99.90
34574;DHT22;20809;49.594;8.734;2023-04-01T00:43:38;9.60;99.90
34574;DHT22;20809;49.594;8.734;2023-04-01T00:46:38;9.60;99.90
34574;DHT22;20809;49.594;8.734;2023-04-01T00:49:42;9.60;99.90
34574;DHT22;20809;49.594;8.734;2023-04-01T00:52:44;9.60;99.90
34574;DHT22;20809;49.594;8.734;2023-04-01T00:59:11;9.60;99.90
34574;DHT22;20809;49.594;8.734;2023-04-01T01:02:15;9.60;99.90
34574;DHT22;20809;49.594;8.734;2023-04-01T01:05:17;9.60;99.90
34574;DHT22;20809;49.594;8.734;2023-04-01T01:08:56;9.50;99.90
34574;DHT22;20809;49.594;8.734;2023-04-01T01:12:00;9.60;99.90
34574;DHT22;20809;49.594;8.734;2023-04-01T01:18:20;9.50;99.90
34574;DHT22;20809;49.594;8.734;2023-04-01T01:25:17;9.50;99.90
34574;DHT22;20809;49.594;8.734;2023-04-01T01:31:37;9.50;99.90
34574;DHT22;20809;49.594;8.734;2023-04-01T01:34:51;9.50;99.90
34574;DHT22;20809;49.594;8.734;2023-04-01T01:37:59;9.50;99.90
34574;DHT22;20809;49.594;8.734;2023-04-01T01:41:03;9.60;99.90
34574;DHT22;20809;49.594;8.734;2023-04-01T01:44:07;9.60;99.90
34574;DHT22;20809;49.594;8.734;2023-04-01T01:47:09;9.60;99.90
34574;DHT22;20809;49.594;8.734;2023-04-01T01:50:11;9.60;99.90
34574;DHT22;20809;49.594;8.734;2023-04-01T01:53:13;9.60;99.90
34574;DHT22;20809;49.594;8.734;2023-04-01T01:56:14;9.60;99.90
34574;DHT22;20809;49.594;8.734;2023-04-01T01:59:18;9.60;99.90
34574;DHT22;20809;49.594;8.734;2023-04-01T02:02:22;9.70;99.90
34574;DHT22;20809;49.594;8.734;2023-04-01T02:05:25;9.70;99.90
34574;DHT22;20809;49.594;8.734;2023-04-01T02:11:42;9.70;99.90
34574;DHT22;20809;49.594;8.734;2023-04-01T02:15:01;9.70;99.90
34574;DHT22;20809;49.594;8.734;2023-04-01T02:18:05;9.70;99.90
34574;DHT22;20809;49.594;8.734;2023-04-01T02:21:08;9.70;99.90
34574;DHT22;20809;49.594;8.734;2023-04-01T02:24:12;9.70;99.90
34574;DHT22;20809;49.594;8.734;2023-04-01T02:27:15;9.70;99.90
34574;DHT22;20809;49.594;8.734;2023-04-01T02:30:17;9.70;99.90
34574;DHT22;20809;49.594;8.734;2023-04-01T02:33:19;9.70;99.90
34574;DHT22;20809;49.594;8.734;2023-04-01T02:36:20;9.70;99.90
34574;DHT22;20809;49.594;8.734;2023-04-01T02:39:21;9.70;99.90
34574;DHT22;20809;49.594;8.734;2023-04-01T02:42:23;9.70;99.90
34574;DHT22;20809;49.594;8.734;2023-04-01T02:45:23;9.60;99.90
34574;DHT22;20809;49.594;8.734;2023-04-01T02:48:24;9.60;99.90
34574;DHT22;20809;49.594;8.734;2023-04-01T02:51:26;9.70;99.90
34574;DHT22;20809;49.594;8.734;2023-04-01T02:54:26;9.60;99.90
34574;DHT22;20809;49.594;8.734;2023-04-01T02:57:27;9.60;99.90
34574;DHT22;20809;49.594;8.734;2023-04-01T03:00:31;9.60;99.90
34574;DHT22;20809;49.594;8.734;2023-04-01T03:03:32;9.60;99.90
34574;DHT22;20809;49.594;8.734;2023-04-01T03:06:33;9.60;99.90
34574;DHT22;20809;49.594;8.734;2023-04-01T03:09:34;9.60;99.90
34574;DHT22;20809;49.594;8.734;2023-04-01T03:12:35;9.60;99.90
34574;DHT22;20809;49.594;8.734;2023-04-01T03:15:36;9.60;99.90
34574;DHT22;20809;49.594;8.734;2023-04-01T03:18:37;9.60;99.90
34574;DHT22;20809;49.594;8.734;2023-04-01T03:21:37;9.60;99.90
34574;DHT22;20809;49.594;8.734;2023-04-01T03:24:38;9.60;99.90
34574;DHT22;20809;49.594;8.734;2023-04-01T03:27:39;9.50;99.90
34574;DHT22;20809;49.594;8.734;2023-04-01T03:30:40;9.50;99.90
34574;DHT22;20809;49.594;8.734;2023-04-01T03:33:42;9.50;99.90
34574;DHT22;20809;49.594;8.734;2023-04-01T03:36:43;9.50;99.90
34574;DHT22;20809;49.594;8.734;2023-04-01T03:39:43;9.50;99.90
34574;DHT22;20809;49.594;8.734;2023-04-01T03:42:44;9.50;99.90
34574;DHT22;20809;49.594;8.734;2023-04-01T03:45:47;9.50;99.90
34574;DHT22;20809;49.594;8.734;2023-04-01T03:48:48;9.50;99.90
34574;DHT22;20809;49.594;8.734;2023-04-01T03:51:49;9.50;99.90
34574;DHT22;20809;49.594;8.734;2023-04-01T03:54:49;9.50;99.90
34574;DHT22;20809;49.594;8.734;2023-04-01T03:57:50;9.50;99.90
34574;DHT22;20809;49.594;8.734;2023-04-01T04:00:51;9.50;99.90
34574;DHT22;20809;49.594;8.734;2023-04-01T04:03:52;9.50;99.90
34574;DHT22;20809;49.594;8.734;2023-04-01T04:06:54;9.40;99.90
34574;DHT22;20809;49.594;8.734;2023-04-01T04:09:54;9.50;99.90
34574;DHT22;20809;49.594;8.734;2023-04-01T04:12:55;9.50;99.90
34574;DHT22;20809;49.594;8.734;2023-04-01T04:15:56;9.50;99.90
34574;DHT22;20809;49.594;8.734;2023-04-01T04:18:57;9.50;99.90
34574;DHT22;20809;49.594;8.734;2023-04-01T04:21:58;9.50;99.90
34574;DHT22;20809;49.594;8.734;2023-04-01T04:25:01;9.50;99.90
34574;DHT22;20809;49.594;8.734;2023-04-01T04:28:02;9.50;99.90
34574;DHT22;20809;49.594;8.734;2023-04-01T04:31:03;9.50;99.90
34574;DHT22;20809;49.594;8.734;2023-04-01T04:34:05;9.60;99.90
34574;DHT22;20809;49.594;8.734;2023-04-01T04:37:06;9.60;99.90
34574;DHT22;20809;49.594;8.734;2023-04-01T04:40:07;9.50;99.90
34574;DHT22;20809;49.594;8.734;2023-04-01T04:43:11;9.60;99.90
34574;DHT22;20809;49.594;8.734;2023-04-01T04:46:12;9.60;99.90
34574;DHT22;20809;49.594;8.734;2023-04-01T04:49:13;9.60;99.90
34574;DHT22;20809;49.594;8.734;2023-04-01T04:52:14;9.60;99.90
34574;DHT22;20809;49.594;8.734;2023-04-01T04:55:15;9.60;99.90
34574;DHT22;20809;49.594;8.734;2023-04-01T04:58:16;9.50;99.90
34574;DHT22;20809;49.594;8.734;2023-04-01T05:01:18;9.50;99.90
34574;DHT22;20809;49.594;8.734;2023-04-01T05:04:18;9.50;99.90
34574;DHT22;20809;49.594;8.734;2023-04-01T05:07:19;9.50;99.90
34574;DHT22;20809;49.594;8.734;2023-04-01T05:10:20;9.50;99.90
34574;DHT22;20809;49.594;8.734;2023-04-01T05:13:21;9.50;99.90
34574;DHT22;20809;49.594;8.734;2023-04-01T05:16:22;9.40;99.90
34574;DHT22;20809;49.594;8.734;2023-04-01T05:19:23;9.40;99.90
34574;DHT22;20809;49.594;8.734;2023-04-01T05:22:24;9.30;99.90
34574;DHT22;20809;49.594;8.734;2023-04-01T05:25:26;9.30;99.90
34574;DHT22;20809;49.594;8.734;2023-04-01T05:28:27;9.30;99.90
34574;DHT22;20809;49.594;8.734;2023-04-01T05:31:27;9.30;99.90
34574;DHT22;20809;49.594;8.734;2023-04-01T05:34:28;9.20;99.90
34574;DHT22;20809;49.594;8.734;2023-04-01T05:37:29;9.20;99.90
34574;DHT22;20809;49.594;8.734;2023-04-01T05:40:31;9.20;99.90
34574;DHT22;20809;49.594;8.734;2023-04-01T05:43:32;9.20;99.90
34574;DHT22;20809;49.594;8.734;2023-04-01T05:46:32;9.20;99.90
34574;DHT22;20809;49.594;8.734;2023-04-01T05:49:33;9.20;99.90
34574;DHT22;20809;49.594;8.734;2023-04-01T05:52:34;9.20;99.90
34574;DHT22;20809;49.594;8.734;2023-04-01T05:55:36;9.20;99.90
34574;DHT22;20809;49.594;8.734;2023-04-01T05:58:37;9.20;99.90
34574;DHT22;20809;49.594;8.734;2023-04-01T06:01:38;9.30;99.90
34574;DHT22;20809;49.594;8.734;2023-04-01T06:04:40;9.30;99.90
34574;DHT22;20809;49.594;8.734;2023-04-01T06:07:41;9.30;99.90
34574;DHT22;20809;49.594;8.734;2023-04-01T06:14:28;9.30;99.90
34574;DHT22;20809;49.594;8.734;2023-04-01T06:27:42;9.30;99.90
34574;DHT22;20809;49.594;8.734;2023-04-01T06:30:59;9.30;99.90
34574;DHT22;20809;49.594;8.734;2023-04-01T06:34:08;9.30;99.90
34574;DHT22;20809;49.594;8.734;2023-04-01T06:40:49;9.30;99.90
34574;DHT22;20809;49.594;8.734;2023-04-01T06:54:35;9.30;99.90
34574;DHT22;20809;49.594;8.734;2023-04-01T06:58:04;9.30;99.90
34574;DHT22;20809;49.594;8.734;2023-04-01T07:01:10;9.30;99.90
34574;DHT22;20809;49.594;8.734;2023-04-01T07:04:20;9.30;99.90
34574;DHT22;20809;49.594;8.734;2023-04-01T07:07:35;9.30;99.90
34574;DHT22;20809;49.594;8.734;2023-04-01T07:11:04;9.30;99.90
34574;DHT22;20809;49.594;8.734;2023-04-01T07:14:24;9.30;99.90
34574;DHT22;20809;49.594;8.734;2023-04-01T07:17:35;9.30;99.90
34574;DHT22;20809;49.594;8.734;2023-04-01T07:20:37;9.30;99.90
34574;DHT22;20809;49.594;8.734;2023-04-01T07:23:42;9.30;99.90
34574;DHT22;20809;49.594;8.734;2023-04-01T07:26:45;9.30;99.90
34574;DHT22;20809;49.594;8.734;2023-04-01T07:29:46;9.30;99.90
34574;DHT22;20809;49.594;8.734;2023-04-01T07:33:02;9.30;99.90
34574;DHT22;20809;49.594;8.734;2023-04-01T07:49:49;9.30;99.90
34574;DHT22;20809;49.594;8.734;2023-04-01T07:52:59;9.30;99.90
34574;DHT22;20809;49.594;8.734;2023-04-01T07:56:05;9.30;99.90
34574;DHT22;20809;49.594;8.734;2023-04-01T08:06:02;9.50;99.90
34574;DHT22;20809;49.594;8.734;2023-04-01T08:22:38;9.00;99.90
34574;DHT22;20809;49.594;8.734;2023-04-01T08:29:02;9.00;99.90
34574;DHT22;20809;49.594;8.734;2023-04-01T08:32:23;9.10;99.90
34574;DHT22;20809;49.594;8.734;2023-04-01T08:35:43;9.00;99.90
34574;DHT22;20809;49.594;8.734;2023-04-01T08:39:09;8.90;99.90
34574;DHT22;20809;49.594;8.734;2023-04-01T08:55:31;8.70;99.90
34574;DHT22;20809;49.594;8.734;2023-04-01T08:58:59;8.70;99.90
34574;DHT22;20809;49.594;8.734;2023-04-01T09:12:54;8.60;99.90
34574;DHT22;20809;49.594;8.734;2023-04-01T09:19:30;8.70;99.90
34574;DHT22;20809;49.594;8.734;2023-04-01T09:23:00;8.70;99.90
34574;DHT22;20809;49.594;8.734;2023-04-01T09:26:42;8.70;99.90
34574;DHT22;20809;49.594;8.734;2023-04-01T09:43:05;9.00;99.90
34574;DHT22;20809;49.594;8.734;2023-04-01T09:46:12;8.90;99.90
34574;DHT22;20809;49.594;8.734;2023-04-01T10:00:08;9.10;99.90
34574;DHT22;20809;49.594;8.734;2023-04-01T10:28:12;9.30;99.90
34574;DHT22;20809;49.594;8.734;2023-04-01T10:31:38;9.30;99.90
34574;DHT22;20809;49.594;8.734;2023-04-01T11:16:54;9.30;99.90
34574;DHT22;20809;49.594;8.734;2023-04-01T11:23:30;9.30;99.90
34574;DHT22;20809;49.594;8.734;2023-04-01T11:50:24;9.40;99.90
34574;DHT22;20809;49.594;8.734;2023-04-01T11:57:25;9.50;99.90
34574;DHT22;20809;49.594;8.734;2023-04-01T12:04:04;9.50;99.90
34574;DHT22;20809;49.594;8.734;2023-04-01T12:11:05;9.50;99.90
34574;DHT22;20809;49.594;8.734;2023-04-01T12:14:18;9.50;99.90
34574;DHT22;20809;49.594;8.734;2023-04-01T12:33:28;9.40;99.90
34574;DHT22;20809;49.594;8.734;2023-04-01T12:47:15;9.40;99.90
34574;DHT22;20809;49.594;8.734;2023-04-01T12:50:31;9.40;99.90
34574;DHT22;20809;49.594;8.734;2023-04-01T13:14:05;9.60;99.90
34574;DHT22;20809;49.594;8.734;2023-04-01T13:17:22;9.60;99.90
34574;DHT22;20809;49.594;8.734;2023-04-01T13:20:47;9.70;99.90
34574;DHT22;20809;49.594;8.734;2023-04-01T13:24:18;9.70;99.90
34574;DHT22;20809;49.594;8.734;2023-04-01T13:30:54;9.70;99.90
34574;DHT22;20809;49.594;8.734;2023-04-01T13:51:48;9.60;99.90
34574;DHT22;20809;49.594;8.734;2023-04-01T14:15:15;9.60;99.90
34574;DHT22;20809;49.594;8.734;2023-04-01T14:18:27;9.70;99.90
34574;DHT22;20809;49.594;8.734;2023-04-01T14:21:47;9.60;99.90
34574;DHT22;20809;49.594;8.734;2023-04-01T14:28:59;9.60;99.90
34574;DHT22;20809;49.594;8.734;2023-04-01T14:35:52;9.50;99.90
34574;DHT22;20809;49.594;8.734;2023-04-01T14:49:04;9.40;99.90
34574;DHT22;20809;49.594;8.734;2023-04-01T14:52:32;9.30;99.90
34574;DHT22;20809;49.594;8.734;2023-04-01T14:55:56;9.30;99.90
34574;DHT22;20809;49.594;8.734;2023-04-01T14:58:57;9.30;99.90
34574;DHT22;20809;49.594;8.734;2023-04-01T15:02:37;9.30;99.90
34574;DHT22;20809;49.594;8.734;2023-04-01T15:05:49;9.30;99.90
34574;DHT22;20809;49.594;8.734;2023-04-01T15:09:24;9.30;99.90
34574;DHT22;20809;49.594;8.734;2023-04-01T15:12:49;9.30;99.90
34574;DHT22;20809;49.594;8.734;2023-04-01T15:26:02;9.40;99.90
34574;DHT22;20809;49.594;8.734;2023-04-01T15:45:51;9.30;99.90
34574;DHT22;20809;49.594;8.734;2023-04-01T15:59:36;9.20;99.90
34574;DHT22;20809;49.594;8.734;2023-04-01T16:02:48;9.20;99.90
34574;DHT22;20809;49.594;8.734;2023-04-01T16:06:26;9.10;99.90
34574;DHT22;20809;49.594;8.734;2023-04-01T16:19:56;9.10;99.90
34574;DHT22;20809;49.594;8.734;2023-04-01T16:26:47;9.00;99.90
34574;DHT22;20809;49.594;8.734;2023-04-01T16:33:02;9.00;99.90
34574;DHT22;20809;49.594;8.734;2023-04-01T16:36:35;9.00;99.90
34574;DHT22;20809;49.594;8.734;2023-04-01T16:40:11;9.00;99.90
34574;DHT22;20809;49.594;8.734;2023-04-01T16:46:40;8.90;99.90
34574;DHT22;20809;49.594;8.734;2023-04-01T16:49:46;8.90;99.90
34574;DHT22;20809;49.594;8.734;2023-04-01T16:56:23;9.00;99.90
34574;DHT22;20809;49.594;8.734;2023-04-01T16:59:47;9.00;99.90
34574;DHT22;20809;49.594;8.734;2023-04-01T17:13:03;9.00;99.90
34574;DHT22;20809;49.594;8.734;2023-04-01T17:23:21;9.00;99.90
34574;DHT22;20809;49.594;8.734;2023-04-01T17:26:45;9.00;99.90
34574;DHT22;20809;49.594;8.734;2023-04-01T17:33:19;9.10;99.90
34574;DHT22;20809;49.594;8.734;2023-04-01T17:43:53;9.10;99.90
34574;DHT22;20809;49.594;8.734;2023-04-01T17:50:23;9.20;99.90
34574;DHT22;20809;49.594;8.734;2023-04-01T18:04:29;9.20;99.90
34574;DHT22;20809;49.594;8.734;2023-04-01T18:07:39;9.10;99.90
34574;DHT22;20809;49.594;8.734;2023-04-01T18:11:13;9.10;99.90
34574;DHT22;20809;49.594;8.734;2023-04-01T18:17:40;9.10;99.90
34574;DHT22;20809;49.594;8.734;2023-04-01T18:24:24;9.10;99.90
34574;DHT22;20809;49.594;8.734;2023-04-01T18:27:50;9.10;99.90
34574;DHT22;20809;49.594;8.734;2023-04-01T18:31:20;9.10;99.90
34574;DHT22;20809;49.594;8.734;2023-04-01T18:52:25;9.10;99.90
34574;DHT22;20809;49.594;8.734;2023-04-01T18:55:47;9.10;99.90
34574;DHT22;20809;49.594;8.734;2023-04-01T18:58:52;9.10;99.90
34574;DHT22;20809;49.594;8.734;2023-04-01T19:02:20;9.00;99.90
34574;DHT22;20809;49.594;8.734;2023-04-01T19:05:36;9.00;99.90
34574;DHT22;20809;49.594;8.734;2023-04-01T19:08:41;8.90;99.90
34574;DHT22;20809;49.594;8.734;2023-04-01T19:11:59;8.80;99.90
34574;DHT22;20809;49.594;8.734;2023-04-01T19:15:17;8.70;99.90
34574;DHT22;20809;49.594;8.734;2023-04-01T19:18:40;8.70;99.90
34574;DHT22;20809;49.594;8.734;2023-04-01T19:21:56;8.70;99.90
34574;DHT22;20809;49.594;8.734;2023-04-01T19:28:20;8.70;99.90
34574;DHT22;20809;49.594;8.734;2023-04-01T19:45:26;8.70;99.90
34574;DHT22;20809;49.594;8.734;2023-04-01T19:48:54;8.60;99.90
34574;DHT22;20809;49.594;8.734;2023-04-01T19:55:37;8.70;99.90
34574;DHT22;20809;49.594;8.734;2023-04-01T19:59:05;8.60;99.90
34574;DHT22;20809;49.594;8.734;2023-04-01T20:08:48;8.60;99.90
34574;DHT22;20809;49.594;8.734;2023-04-01T20:15:34;8.50;99.90
34574;DHT22;20809;49.594;8.734;2023-04-01T20:18:59;8.50;99.90
34574;DHT22;20809;49.594;8.734;2023-04-01T20:22:02;8.50;99.90
34574;DHT22;20809;49.594;8.734;2023-04-01T20:25:53;8.50;99.90
34574;DHT22;20809;49.594;8.734;2023-04-01T20:39:25;8.50;99.90
34574;DHT22;20809;49.594;8.734;2023-04-01T20:42:49;8.50;99.90
34574;DHT22;20809;49.594;8.734;2023-04-01T20:49:29;8.50;99.90
34574;DHT22;20809;49.594;8.734;2023-04-01T20:52:46;8.50;99.90
34574;DHT22;20809;49.594;8.734;2023-04-01T20:56:35;8.60;99.90
34574;DHT22;20809;49.594;8.734;2023-04-01T21:16:51;8.50;99.90
34574;DHT22;20809;49.594;8.734;2023-04-01T21:27:03;8.40;99.90
34574;DHT22;20809;49.594;8.734;2023-04-01T21:47:21;8.40;99.90
34574;DHT22;20809;49.594;8.734;2023-04-01T22:15:55;8.30;99.90
34574;DHT22;20809;49.594;8.734;2023-04-01T22:19:23;8.30;99.90
34574;DHT22;20809;49.594;8.734;2023-04-01T22:29:30;8.30;99.90
34574;DHT22;20809;49.594;8.734;2023-04-01T22:49:19;8.30;99.90
34574;DHT22;20809;49.594;8.734;2023-04-01T22:52:40;8.30;99.90
34574;DHT22;20809;49.594;8.734;2023-04-01T22:55:46;8.40;99.90
34574;DHT22;20809;49.594;8.734;2023-04-01T22:59:00;8.30;99.90
34574;DHT22;20809;49.594;8.734;2023-04-01T23:02:20;8.40;99.90
34574;DHT22;20809;49.594;8.734;2023-04-01T23:05:23;8.40;99.90
34574;DHT22;20809;49.594;8.734;2023-04-01T23:11:58;8.40;99.90
34574;DHT22;20809;49.594;8.734;2023-04-01T23:15:01;8.40;99.90
34574;DHT22;20809;49.594;8.734;2023-04-01T23:18:22;8.40;99.90
34574;DHT22;20809;49.594;8.734;2023-04-01T23:22:21;8.40;99.90
34574;DHT22;20809;49.594;8.734;2023-04-01T23:28:51;8.30;99.90
34574;DHT22;20809;49.594;8.734;2023-04-01T23:32:02;8.30;99.90
34574;DHT22;20809;49.594;8.734;2023-04-01T23:35:15;8.30;99.90
34574;DHT22;20809;49.594;8.734;2023-04-01T23:38:18;8.20;99.90
34574;DHT22;20809;49.594;8.734;2023-04-01T23:41:26;8.30;99.90
34574;DHT22;20809;49.594;8.734;2023-04-01T23:44:30;8.20;99.90
34574;DHT22;20809;49.594;8.734;2023-04-01T23:47:33;8.20;99.90
34574;DHT22;20809;49.594;8.734;2023-04-01T23:50:35;8.20;99.90
34574;DHT22;20809;49.594;8.734;2023-04-01T23:53:43;8.20;99.90
34574;DHT22;20809;49.594;8.734;2023-04-01T23:56:52;8.30;99.90
